Latest Weather Observations for Giles*

IDD60801

Issued at 6:01 am CST Thursday 16 August 2018 (issued every 10 minutes, with the page automatically refreshed every 10 minutes)

About weather observations | Map of weather stations | Latest weather observations for NT | Other Formats
Station Details ID: 013017 Name: GILES METEOROLOGICAL OFFICE Lat: -25.03 Lon: 128.30 Height: 598.0 m
Data from the previous 72 hours. | See also: Recent months at Giles*

* Giles observations are collected in the South Australia time zone, which includes daylight saving in the summer period. Therefore, Rain since 9am value is with respect to South Australia local time.

Date/Time
CST
Temp
°C
App
Temp
°C
Dew
Point
°C
Rel
Hum
%
Delta-T
°C
Wind Press
QNH
hPa
Press
MSL
hPa
Rain since
9am
mm
Dir  Spd
km/h
Gust
km/h
Spd
kts
Gust
kts
16/05:30am 9.0 3.5 -16.4 15 7.1 ESE 11 15 6 8 1018.2 1016.9 0.0
16/05:00am 7.9 1.9 -18.5 13 6.9 SSW 13 26 7 14 1018.0 1016.7 0.0
16/04:52am 7.4 3.4 -13.5 21 6.1 N 4 26 2 14 1018.1 1016.8 0.0
16/04:30am 12.4 9.0 -14.7 13 8.3 CALM 0 0 0 0 1018.0 1016.7 0.0
16/04:00am 9.6 6.2 -15.2 16 7.2 CALM 0 0 0 0 1018.2 1016.9 0.0
16/03:30am 13.5 10.1 -16.6 11 9.0 CALM 0 0 0 0 1018.3 1017.0 0.0
16/03:25am 12.8 9.3 -16.7 11 8.7 CALM 0 0 0 0 1018.3 1017.0 0.0
16/03:00am 7.3 3.9 -15.3 18 6.3 CALM 0 0 0 0 1018.4 1017.1 0.0
16/02:30am 11.6 6.7 -12.7 17 7.7 NNE 9 11 5 6 1018.4 1017.1 0.0
16/02:00am 13.3 7.8 -15.6 12 8.8 NE 11 13 6 7 1018.7 1017.4 0.0
16/01:30am 12.6 8.0 -12.5 16 8.1 E 7 9 4 5 1018.6 1017.3 0.0
16/01:00am 12.1 6.5 -17.6 11 8.5 SSE 11 15 6 8 1018.8 1017.5 0.0
16/12:41am 10.1 6.6 -11.0 21 6.8 N 2 22 1 12 1019.1 1017.7 0.0
16/12:30am 17.9 14.6 -13.1 11 10.6 CALM 0 6 0 3 1018.9 1017.6 0.0
16/12:00am 17.1 13.9 -12.2 12 10.1 CALM 0 6 0 3 1019.3 1017.9 0.0
 
Date/Time
CST
Temp
°C
App
Temp
°C
Dew
Point
°C
Rel
Hum
%
Delta-T
°C
Wind Press
QNH
hPa
Press
MSL
hPa
Rain since
9am
mm
Dir  Spd
km/h
Gust
km/h
Spd
kts
Gust
kts
15/11:30pm 16.1 12.8 -14.3 11 9.9 CALM 0 0 0 0 1019.4 1018.1 0.0
15/11:00pm 18.2 14.6 -12.8 11 10.7 NNW 2 6 1 3 1019.5 1018.2 0.0
15/10:30pm 18.1 13.4 -14.9 9 10.9 N 7 7 4 4 1019.5 1018.2 0.0
15/10:00pm 18.6 14.1 -15.5 8 11.2 NNW 6 7 3 4 1019.7 1018.4 0.0
15/09:30pm 18.2 14.9 -8.1 16 10.0 NW 2 6 1 3 1019.7 1018.4 0.0
15/09:00pm 18.8 14.2 -16.5 8 11.4 NNW 6 7 3 4 1019.6 1018.3 0.0
15/08:30pm 18.5 15.0 -11.0 12 10.6 NW 2 6 1 3 1019.3 1017.9 0.0
15/08:00pm 18.4 13.9 -11.3 12 10.6 WNW 7 11 4 6 1018.8 1017.5 0.0
15/07:30pm 20.5 14.9 -17.3 6 12.3 WSW 11 13 6 7 1018.4 1017.1 0.0
15/07:00pm 21.7 17.0 -14.3 8 12.6 WSW 7 9 4 5 1018.1 1016.8 0.0
15/06:30pm 23.2 17.9 -19.1 5 13.8 WSW 9 11 5 6 1018.0 1016.7 0.0
15/06:00pm 24.5 18.6 -26.9 2 14.9 SW 11 15 6 8 1017.9 1016.5 0.0
15/05:30pm 25.2 18.5 -31.1 1 15.4 SW 15 22 8 12 1017.8 1016.4 0.0
15/05:00pm 25.4 18.3 -31.0 1 15.5 W 17 28 9 15 1017.8 1016.4 0.0
15/04:30pm 26.5 20.7 -23.9 3 15.8 W 11 24 6 13 1017.8 1016.4 0.0
15/04:00pm 25.9 19.9 -19.2 4 15.2 NNW 13 20 7 11 1018.0 1016.7 0.0
15/03:30pm 26.2 20.0 -25.2 2 15.7 WNW 13 22 7 12 1018.3 1017.0 0.0
15/03:00pm 25.8 19.6 -23.4 3 15.4 WNW 13 22 7 12 1018.7 1017.4 0.0
15/02:30pm 25.1 19.4 -21.0 4 14.9 NW 11 19 6 10 1018.9 1017.6 0.0
15/02:00pm 24.7 19.6 -14.9 6 14.2 NNW 9 17 5 9 1019.4 1018.1 0.0
15/01:30pm 25.2 20.4 -16.5 5 14.6 NNE 7 13 4 7 1019.9 1018.6 0.0
15/01:00pm 24.3 18.7 -18.5 5 14.3 WNW 11 19 6 10 1020.4 1019.1 0.0
15/12:30pm 24.0 19.3 -14.7 6 13.8 NW 7 13 4 7 1021.1 1019.8 0.0
15/12:00pm 23.9 19.4 -15.2 6 13.8 NNE 6 11 3 6 1021.6 1020.3 0.0
15/11:30am 22.9 18.0 -11.9 9 12.9 NW 9 13 5 7 1022.2 1020.9 0.0
15/11:00am 23.0 18.0 -14.0 7 13.2 NNW 9 15 5 8 1022.5 1021.3 0.0
15/10:30am 21.4 16.9 -12.4 9 12.2 WNW 7 11 4 6 1022.8 1021.5 0.0
15/10:00am 20.7 16.9 -9.8 12 11.5 W 4 9 2 5 1022.7 1021.4 0.0
15/09:30am 18.6 14.1 -12.2 11 10.8 W 7 9 4 5 1022.4 1021.2 0.0
15/09:00am 17.7 14.8 -8.5 16 9.8 CALM 0 0 0 0 1022.1 1020.8 0.0
15/08:30am 14.7 12.0 -6.0 23 7.9 CALM 0 0 0 0 1021.9 1020.6 0.0
15/08:00am 11.6 8.5 -10.2 20 7.3 CALM 0 0 0 0 1021.6 1020.3 0.0
15/07:30am 10.8 7.8 -8.8 24 6.7 CALM 0 0 0 0 1021.3 1020.0 0.0
15/07:00am 9.9 6.9 -9.2 25 6.4 CALM 0 0 0 0 1021.1 1019.8 0.0
15/06:30am 9.7 6.7 -9.1 25 6.3 CALM 0 4 0 2 1020.9 1019.6 0.0
15/06:00am 7.9 4.6 -12.9 21 6.2 CALM 0 0 0 0 1020.7 1019.4 0.0
15/05:51am 8.5 5.6 -8.1 30 5.6 CALM 0 0 0 0 1020.6 1019.3 0.0
15/05:30am 13.5 9.2 -8.8 20 7.9 NNE 7 9 4 5 1020.4 1019.1 0.0
15/05:00am 11.3 8.2 -10.4 21 7.2 CALM 0 0 0 0 1020.6 1019.3 0.0
15/04:30am 10.6 7.5 -11.0 21 7.0 CALM 0 0 0 0 1020.7 1019.4 0.0
15/04:00am 12.8 8.8 -7.8 23 7.4 N 6 7 3 4 1020.9 1019.6 0.0
15/03:30am 13.9 10.1 -5.9 25 7.5 NW 6 7 3 4 1021.1 1019.8 0.0
15/03:00am 14.0 9.9 -9.3 19 8.2 NNW 6 7 3 4 1021.3 1020.0 0.0
15/02:30am 13.6 9.6 -8.0 21 7.8 WNW 6 6 3 3 1021.5 1020.2 0.0
15/02:00am 14.1 11.1 -9.0 19 8.2 CALM 0 0 0 0 1021.7 1020.4 0.0
15/01:30am 13.6 10.7 -7.5 22 7.7 CALM 0 0 0 0 1021.8 1020.5 0.0
15/01:00am 9.7 5.6 -8.6 26 6.2 SSE 6 7 3 4 1021.9 1020.6 0.0
15/12:30am 6.7 1.8 -11.5 26 5.5 NW 9 24 5 13 1022.0 1020.7 0.0
15/12:27am 8.7 4.4 -8.7 28 5.8 NNW 7 24 4 13 1022.0 1020.7 0.0
15/12:00am 16.0 11.4 -8.5 18 9.0 N 9 11 5 6 1021.9 1020.6 0.0
 
Date/Time
CST
Temp
°C
App
Temp
°C
Dew
Point
°C
Rel
Hum
%
Delta-T
°C
Wind Press
QNH
hPa
Press
MSL
hPa
Rain since
9am
mm
Dir  Spd
km/h
Gust
km/h
Spd
kts
Gust
kts
14/11:30pm 15.6 12.7 -7.9 19 8.7 CALM 0 0 0 0 1021.9 1020.6 0.0
14/11:00pm 15.9 13.0 -7.7 19 8.8 CALM 0 0 0 0 1022.1 1020.8 0.0
14/10:30pm 15.2 12.3 -7.9 19 8.5 CALM 0 0 0 0 1022.1 1020.8 0.0
14/10:00pm 14.3 10.2 -9.1 19 8.3 N 6 7 3 4 1022.2 1020.9 0.0
14/09:30pm 13.8 9.5 -8.7 20 8.0 N 7 9 4 5 1022.1 1020.8 0.0
14/09:00pm 17.5 12.9 -8.4 16 9.7 N 9 11 5 6 1021.9 1020.6 0.0
14/08:30pm 17.9 13.2 -9.1 15 10.0 N 9 11 5 6 1021.7 1020.4 0.0
14/08:00pm 18.5 13.8 -9.1 14 10.3 N 9 11 5 6 1021.5 1020.2 0.0
14/07:30pm 19.1 14.9 -7.4 16 10.3 N 7 9 4 5 1021.3 1020.0 0.0
14/07:00pm 19.5 15.1 -9.8 13 10.9 NNW 7 11 4 6 1021.3 1020.0 0.0
14/06:30pm 21.5 16.6 -11.2 10 12.1 NW 9 11 5 6 1021.1 1019.8 0.0
14/06:00pm 22.9 17.2 -13.4 8 13.1 N 13 17 7 9 1020.9 1019.6 0.0
14/05:30pm 23.4 17.7 -12.1 8 13.2 N 13 19 7 10 1020.7 1019.4 0.0
14/05:00pm 23.8 18.1 -12.9 8 13.5 WNW 13 20 7 11 1021.0 1019.7 0.0
14/04:30pm 23.6 17.5 -12.9 8 13.4 NNW 15 22 8 12 1021.1 1019.8 0.0
14/04:00pm 23.6 17.9 -13.0 8 13.4 WNW 13 20 7 11 1021.4 1020.1 0.0
14/03:30pm 23.2 17.6 -11.4 9 13.0 NNW 13 20 7 11 1021.9 1020.6 0.0
14/03:00pm 23.0 17.4 -11.5 9 12.9 N 13 22 7 12 1022.4 1021.2 0.0
14/02:30pm 22.9 16.9 -11.1 9 12.8 NW 15 22 8 12 1022.9 1021.6 0.0
14/02:00pm 21.9 15.8 -7.9 13 11.8 NNW 17 24 9 13 1023.4 1022.1 0.0
14/01:30pm 22.7 16.1 -9.8 10 12.5 N 19 28 10 15 1024.0 1022.8 0.0
14/01:00pm 21.6 15.4 -8.9 12 11.9 N 17 24 9 13 1024.6 1023.3 0.0
14/12:30pm 20.2 13.5 -8.4 14 11.0 N 20 28 11 15 1025.3 1024.1 0.0
14/12:00pm 19.2 12.1 -8.4 14 10.5 N 22 30 12 16 1025.8 1024.6 0.0
14/11:30am 18.7 12.1 -7.0 17 10.0 N 20 30 11 16 1026.2 1024.9 0.0
14/11:00am 18.2 10.8 -7.8 16 10.0 N 24 30 13 16 1026.5 1025.2 0.0
14/10:30am 17.0 10.0 -7.1 18 9.2 N 22 32 12 17 1026.5 1025.2 0.0
14/10:00am 17.0 10.4 -6.6 19 9.1 NNE 20 30 11 16 1026.3 1025.0 0.0
14/09:30am 15.7 8.4 -6.7 21 8.5 NNE 24 30 13 16 1026.2 1024.9 0.0
14/09:00am 15.2 9.3 -5.9 23 8.1 ENE 17 24 9 13 1025.9 1024.7 0.0
14/08:30am 14.2 7.3 -5.8 24 7.6 NE 22 32 12 17 1025.7 1024.5 0.0
14/08:00am 11.7 6.3 -4.6 31 6.2 N 15 20 8 11 1025.3 1024.1 0.0
14/07:30am 9.7 7.2 -4.2 37 5.2 CALM 0 0 0 0 1024.9 1023.6 0.0
14/07:00am 11.3 7.1 -3.7 35 5.8 NE 9 17 5 9 1024.3 1023.1 0.0
14/06:30am 12.0 5.3 -4.5 31 6.3 ENE 22 26 12 14 1024.0 1022.8 0.0
14/06:00am 9.1 4.9 -4.0 39 4.9 ESE 9 11 5 6 1024.0 1022.8 0.0
14/05:30am 10.1 5.9 -4.2 36 5.4 ESE 9 13 5 7 1024.0 1022.8 0.0
14/05:00am 11.4 5.6 -4.7 32 6.1 ESE 17 22 9 12 1024.0 1022.8 0.0
14/04:30am 11.7 6.3 -4.6 31 6.2 E 15 20 8 11 1024.3 1023.1 0.0
14/04:00am 11.8 6.0 -4.8 31 6.3 E 17 22 9 12 1024.6 1023.3 0.0
14/03:30am 11.3 5.1 -5.0 31 6.1 E 19 24 10 13 1024.9 1023.6 0.0
14/03:00am 11.7 5.5 -5.1 30 6.3 E 19 24 10 13 1025.5 1024.3 0.0
14/02:30am 11.8 5.6 -4.9 31 6.3 E 19 24 10 13 1025.7 1024.5 0.0
14/02:00am 11.1 4.9 -4.9 32 6.0 E 19 22 10 12 1025.9 1024.7 0.0
14/01:30am 9.6 3.7 -5.2 35 5.4 ESE 17 20 9 11 1026.3 1025.0 0.0
14/01:00am 8.6 3.1 -5.3 37 5.0 ESE 15 15 8 8 1026.4 1025.1 0.0
14/12:30am 9.2 4.5 -5.5 35 5.3 ESE 11 15 6 8 1026.5 1025.2 0.0
14/12:00am 11.9 6.5 -4.7 31 6.3 E 15 17 8 9 1026.7 1025.5 0.0
 
Date/Time
CST
Temp
°C
App
Temp
°C
Dew
Point
°C
Rel
Hum
%
Delta-T
°C
Wind Press
QNH
hPa
Press
MSL
hPa
Rain since
9am
mm
Dir  Spd
km/h
Gust
km/h
Spd
kts
Gust
kts
13/11:30pm 12.2 6.7 -5.4 29 6.6 E 15 17 8 9 1026.8 1025.6 0.0
13/11:00pm 11.2 5.6 -6.1 29 6.3 E 15 17 8 9 1026.8 1025.6 0.0
13/10:30pm 12.7 7.6 -4.8 29 6.7 E 13 15 7 8 1026.9 1025.7 0.0
13/10:00pm 14.5 9.4 -5.1 25 7.6 ENE 13 15 7 8 1026.9 1025.7 0.0
13/09:30pm 15.1 9.6 -5.7 23 8.0 ENE 15 17 8 9 1026.9 1025.7 0.0
13/09:00pm 15.0 9.9 -5.4 24 7.9 ENE 13 17 7 9 1026.6 1025.3 0.0
13/08:30pm 12.4 7.4 -7.8 23 7.2 SE 11 15 6 8 1026.4 1025.1 0.0
13/08:00pm 16.5 12.2 -5.3 22 8.6 NE 9 11 5 6 1026.0 1024.8 0.0
13/07:30pm 16.8 12.1 -5.1 22 8.7 NE 11 13 6 7 1025.7 1024.5 0.0
13/07:00pm 18.0 13.7 -4.7 21 9.2 NE 9 11 5 6 1025.4 1024.2 0.0
13/06:30pm 19.2 14.8 -6.1 17 10.1 ENE 9 13 5 7 1025.0 1023.7 0.0
13/06:00pm 20.4 15.1 -7.7 14 11.0 E 13 20 7 11 1024.9 1023.6 0.0
13/05:30pm 21.1 15.2 -9.9 11 11.7 ENE 15 22 8 12 1024.8 1023.5 0.0
13/05:00pm 21.4 16.0 -8.3 13 11.7 E 13 19 7 10 1024.9 1023.6 0.0
13/04:30pm 21.0 16.1 -6.6 15 11.1 ENE 11 19 6 10 1025.1 1023.8 0.0
13/04:00pm 21.5 16.0 -9.2 12 11.8 NE 13 20 7 11 1025.3 1024.1 0.0
13/03:30pm 20.8 15.1 -7.7 14 11.2 NE 15 22 8 12 1025.4 1024.2 0.0
13/03:00pm 20.6 14.4 -9.0 13 11.3 NE 17 26 9 14 1025.8 1024.6 0.0
13/02:30pm 20.4 14.3 -7.8 14 11.0 ENE 17 26 9 14 1026.3 1025.0 0.0
13/02:00pm 20.1 13.6 -8.1 14 11.0 NE 19 24 10 13 1026.7 1025.5 0.0
13/01:30pm 19.7 13.2 -7.5 15 10.6 ENE 19 28 10 15 1027.0 1025.8 0.0
13/01:00pm 18.3 11.6 -8.1 16 10.1 ENE 20 30 11 16 1027.6 1026.4 0.0
13/12:30pm 17.1 10.6 -5.9 20 9.0 ENE 20 30 11 16 1028.4 1027.2 0.0
13/12:00pm 16.0 9.4 -3.4 26 7.9 ENE 22 35 12 19 1029.0 1027.8 0.0
13/11:30am 15.9 8.8 -4.4 24 8.1 ENE 24 39 13 21 1029.2 1028.0 0.0
13/11:00am 14.9 7.1 -3.5 28 7.5 ENE 28 39 15 21 1029.5 1028.3 0.0
13/10:30am 14.0 6.3 -3.2 30 6.9 ENE 28 37 15 20 1029.9 1028.7 0.0
13/10:00am 13.0 4.6 -2.3 34 6.2 ENE 32 48 17 26 1029.8 1028.6 0.0
13/09:30am 12.7 4.7 -2.1 35 6.0 NE 30 44 16 24 1029.8 1028.6 0.0
13/09:00am 11.9 5.5 -2.0 38 5.6 ENE 22 33 12 18 1029.6 1028.5 0.0
13/08:30am 10.9 4.5 -1.8 41 5.1 ENE 22 33 12 18 1029.3 1028.1 0.0
13/08:00am 9.4 4.3 -1.7 46 4.4 ENE 15 22 8 12 1029.1 1027.9 0.0
13/07:30am 6.4 1.6 -2.4 53 3.3 ENE 13 13 7 7 1028.9 1027.7 0.0
13/07:00am 5.9 1.8 -2.7 54 3.2 ESE 9 11 5 6 1028.7 1027.5 0.0
13/06:30am 6.0 1.5 -2.9 53 3.3 E 11 13 6 7 1028.5 1027.3 0.0

Other Formats:

Comma delimited format used in spreadsheet applications
http://www.bom.gov.au/fwo/IDD60801/IDD60801.94461.axf

JavaScript Object Notation format (JSON) in row-major order
http://www.bom.gov.au/fwo/IDD60801/IDD60801.94461.json